LGL432 LFBZ-ELLX
Flight info
| Callsign | LGL432 |
|---|---|
| Flight time | 1h 43m |
| Altitude | 24000 |
| Route | VAVIX DCT ADABI DCT BOKNO UN858 VANAD UN874 VADOM UL976 TSU UM163 LEQOS DCT CTL DCT MMD |
| Aircraft | DH8D/M-SDE2E3FGRY/H |
Departure
| Time | 2026-04-29 15:48 |
|---|---|
| Airport | Biarritz Pays Basque airport (LFBZ) |
Arrival
| Time | 2026-04-29 17:31 |
|---|---|
| Airport | Luxembourg-Findel International Airport (ELLX) |
| Time | Latitude | Longitude | Altitude | Speed | Heading |
|---|---|---|---|---|---|
| 2026-04-29 15:35 | 43.47107 | -1.53180 | 240 ft | 0 kts | 161° |
| 2026-04-29 15:45 | 43.47104 | -1.53178 | 240 ft | 1 kts | 161° |
| 2026-04-29 15:45 | 43.47065 | -1.53167 | 241 ft | 8 kts | 198° |
| 2026-04-29 15:45 | 43.47017 | -1.53190 | 241 ft | 0 kts | 197° |
| 2026-04-29 15:46 | 43.47014 | -1.53191 | 241 ft | 2 kts | 197° |
| 2026-04-29 15:46 | 43.46958 | -1.53194 | 242 ft | 9 kts | 166° |
| 2026-04-29 15:46 | 43.46870 | -1.53162 | 243 ft | 15 kts | 183° |
| 2026-04-29 15:46 | 43.46830 | -1.53139 | 242 ft | 0 kts | 91° |
| 2026-04-29 15:48 | 43.46830 | -1.53138 | 243 ft | 0 kts | 91° |
| 2026-04-29 15:48 | 43.46830 | -1.52783 | 241 ft | 83 kts | 90° |
| 2026-04-29 15:48 | 43.46839 | -1.52087 | 232 ft | 132 kts | 88° |
| 2026-04-29 15:48 | 43.46842 | -1.50307 | 874 ft | 140 kts | 92° |
| 2026-04-29 15:49 | 43.46862 | -1.49064 | 1637 ft | 133 kts | 89° |
| 2026-04-29 15:49 | 43.46940 | -1.47836 | 2316 ft | 126 kts | 90° |
| 2026-04-29 15:49 | 43.46952 | -1.46656 | 2881 ft | 127 kts | 98° |
| 2026-04-29 15:49 | 43.47017 | -1.45457 | 3297 ft | 140 kts | 71° |
| 2026-04-29 15:50 | 43.47838 | -1.44433 | 3390 ft | 179 kts | 33° |
| 2026-04-29 15:50 | 43.48986 | -1.43605 | 3757 ft | 193 kts | 33° |
| 2026-04-29 15:50 | 43.50122 | -1.42727 | 4234 ft | 200 kts | 34° |
| 2026-04-29 15:50 | 43.51321 | -1.41744 | 4811 ft | 204 kts | 35° |
| 2026-04-29 15:51 | 43.52537 | -1.40699 | 5380 ft | 208 kts | 36° |
| 2026-04-29 15:51 | 43.53746 | -1.39628 | 5976 ft | 210 kts | 37° |
| 2026-04-29 15:51 | 43.54965 | -1.38522 | 6544 ft | 214 kts | 37° |
| 2026-04-29 15:51 | 43.56207 | -1.37376 | 7140 ft | 216 kts | 37° |
| 2026-04-29 15:52 | 43.57445 | -1.36220 | 7638 ft | 219 kts | 36° |
| 2026-04-29 15:52 | 43.58708 | -1.35032 | 8154 ft | 222 kts | 36° |
| 2026-04-29 15:52 | 43.59992 | -1.33816 | 8685 ft | 223 kts | 37° |
| 2026-04-29 15:52 | 43.61270 | -1.32598 | 9180 ft | 222 kts | 36° |
| 2026-04-29 15:53 | 43.62539 | -1.31390 | 9427 ft | 227 kts | 36° |
| 2026-04-29 15:53 | 43.63853 | -1.30131 | 9733 ft | 229 kts | 36° |
| 2026-04-29 15:53 | 43.65157 | -1.28878 | 10089 ft | 230 kts | 36° |
| 2026-04-29 15:53 | 43.66470 | -1.27611 | 10455 ft | 231 kts | 36° |
| 2026-04-29 15:54 | 43.67775 | -1.26349 | 10852 ft | 231 kts | 36° |
| 2026-04-29 15:54 | 43.69102 | -1.25065 | 11188 ft | 233 kts | 36° |
| 2026-04-29 15:54 | 43.70429 | -1.23779 | 11571 ft | 235 kts | 36° |
| 2026-04-29 15:54 | 43.71753 | -1.22495 | 11954 ft | 235 kts | 36° |
| 2026-04-29 15:55 | 43.73090 | -1.21197 | 12326 ft | 237 kts | 36° |
| 2026-04-29 15:55 | 43.74436 | -1.19888 | 12725 ft | 237 kts | 36° |
| 2026-04-29 15:55 | 43.75807 | -1.18568 | 13094 ft | 239 kts | 35° |
| 2026-04-29 15:55 | 43.77188 | -1.17276 | 13472 ft | 241 kts | 34° |
| 2026-04-29 15:56 | 43.78563 | -1.15990 | 13846 ft | 243 kts | 34° |
| 2026-04-29 15:56 | 43.79967 | -1.14676 | 14254 ft | 244 kts | 34° |
| 2026-04-29 15:56 | 43.81371 | -1.13361 | 14635 ft | 244 kts | 35° |
| 2026-04-29 15:56 | 43.82789 | -1.12030 | 14980 ft | 246 kts | 35° |
| 2026-04-29 15:57 | 43.84206 | -1.10699 | 15328 ft | 249 kts | 35° |
| 2026-04-29 15:57 | 43.85638 | -1.09353 | 15702 ft | 250 kts | 36° |
| 2026-04-29 15:57 | 43.87083 | -1.07993 | 16024 ft | 251 kts | 36° |
| 2026-04-29 15:57 | 43.88521 | -1.06640 | 16391 ft | 251 kts | 36° |
| 2026-04-29 15:58 | 43.89965 | -1.05279 | 16723 ft | 253 kts | 36° |
| 2026-04-29 15:58 | 43.91423 | -1.03904 | 17026 ft | 256 kts | 36° |
| 2026-04-29 15:58 | 43.92887 | -1.02522 | 17358 ft | 255 kts | 36° |
| 2026-04-29 15:58 | 43.94369 | -1.01124 | 17637 ft | 258 kts | 37° |
| 2026-04-29 15:59 | 43.95845 | -0.99729 | 17941 ft | 259 kts | 37° |
| 2026-04-29 15:59 | 43.97319 | -0.98336 | 18247 ft | 259 kts | 37° |
| 2026-04-29 15:59 | 43.98826 | -0.96911 | 18505 ft | 262 kts | 37° |
| 2026-04-29 15:59 | 44.00319 | -0.95497 | 18781 ft | 263 kts | 37° |
| 2026-04-29 16:00 | 44.01853 | -0.94044 | 19048 ft | 264 kts | 37° |
| 2026-04-29 16:00 | 44.03371 | -0.92605 | 19280 ft | 267 kts | 37° |
| 2026-04-29 16:00 | 44.04888 | -0.91163 | 19595 ft | 266 kts | 37° |
| 2026-04-29 16:00 | 44.06438 | -0.89691 | 19818 ft | 268 kts | 37° |
| 2026-04-29 16:01 | 44.07964 | -0.88243 | 20064 ft | 270 kts | 37° |
| 2026-04-29 16:01 | 44.09515 | -0.86771 | 20341 ft | 269 kts | 37° |
| 2026-04-29 16:01 | 44.11066 | -0.85296 | 20569 ft | 270 kts | 37° |
| 2026-04-29 16:01 | 44.12611 | -0.83826 | 20700 ft | 276 kts | 37° |
| 2026-04-29 16:02 | 44.14225 | -0.82288 | 20767 ft | 284 kts | 37° |
| 2026-04-29 16:02 | 44.15875 | -0.80715 | 20830 ft | 291 kts | 37° |
| 2026-04-29 16:02 | 44.17563 | -0.79105 | 20886 ft | 298 kts | 37° |
| 2026-04-29 16:02 | 44.19278 | -0.77470 | 20946 ft | 305 kts | 36° |
| 2026-04-29 16:03 | 44.21052 | -0.75776 | 21004 ft | 312 kts | 37° |
| 2026-04-29 16:03 | 44.22860 | -0.74050 | 21068 ft | 318 kts | 37° |
| 2026-04-29 16:03 | 44.24681 | -0.72311 | 21158 ft | 322 kts | 37° |
| 2026-04-29 16:03 | 44.26539 | -0.70533 | 21256 ft | 326 kts | 36° |
| 2026-04-29 16:04 | 44.28503 | -0.68935 | 21406 ft | 329 kts | 25° |
| 2026-04-29 16:04 | 44.30627 | -0.67802 | 21587 ft | 330 kts | 21° |
| 2026-04-29 16:04 | 44.32810 | -0.66700 | 21728 ft | 331 kts | 21° |
| 2026-04-29 16:04 | 44.34958 | -0.65612 | 21869 ft | 332 kts | 21° |
| 2026-04-29 16:05 | 44.37125 | -0.64510 | 22025 ft | 333 kts | 21° |
| 2026-04-29 16:05 | 44.39316 | -0.63391 | 22193 ft | 333 kts | 21° |
| 2026-04-29 16:05 | 44.41492 | -0.62276 | 22306 ft | 335 kts | 21° |
| 2026-04-29 16:05 | 44.43648 | -0.61168 | 22496 ft | 334 kts | 21° |
| 2026-04-29 16:06 | 44.45831 | -0.60043 | 22630 ft | 334 kts | 21° |
| 2026-04-29 16:06 | 44.48023 | -0.58911 | 22712 ft | 336 kts | 21° |
| 2026-04-29 16:06 | 44.50216 | -0.57781 | 22872 ft | 336 kts | 21° |
| 2026-04-29 16:06 | 44.52381 | -0.56660 | 23028 ft | 335 kts | 22° |
| 2026-04-29 16:07 | 44.54589 | -0.55516 | 23163 ft | 335 kts | 21° |
| 2026-04-29 16:07 | 44.56779 | -0.54380 | 23260 ft | 337 kts | 21° |
| 2026-04-29 16:07 | 44.58979 | -0.53238 | 23360 ft | 338 kts | 21° |
| 2026-04-29 16:07 | 44.61180 | -0.52093 | 23466 ft | 339 kts | 22° |
| 2026-04-29 16:08 | 44.63392 | -0.50943 | 23546 ft | 341 kts | 22° |
| 2026-04-29 16:08 | 44.65617 | -0.49784 | 23697 ft | 341 kts | 22° |
| 2026-04-29 16:08 | 44.67818 | -0.48637 | 23828 ft | 340 kts | 21° |
| 2026-04-29 16:08 | 44.70052 | -0.47471 | 23861 ft | 343 kts | 21° |
| 2026-04-29 16:09 | 44.72309 | -0.46293 | 23866 ft | 347 kts | 21° |
| 2026-04-29 16:09 | 44.74564 | -0.45114 | 23867 ft | 350 kts | 21° |
| 2026-04-29 16:09 | 44.76866 | -0.43910 | 23867 ft | 353 kts | 21° |
| 2026-04-29 16:09 | 44.79165 | -0.42706 | 23870 ft | 355 kts | 21° |
| 2026-04-29 16:10 | 44.81477 | -0.41495 | 23871 ft | 357 kts | 21° |
| 2026-04-29 16:10 | 44.83815 | -0.40270 | 23869 ft | 359 kts | 21° |
| 2026-04-29 16:10 | 44.86144 | -0.39048 | 23870 ft | 360 kts | 21° |
| 2026-04-29 16:10 | 44.88483 | -0.37820 | 23869 ft | 361 kts | 21° |
| 2026-04-29 16:11 | 44.90858 | -0.36572 | 23874 ft | 361 kts | 21° |
| 2026-04-29 16:11 | 44.93203 | -0.35338 | 23872 ft | 362 kts | 21° |
| 2026-04-29 16:11 | 44.95564 | -0.34095 | 23869 ft | 363 kts | 22° |
| 2026-04-29 16:11 | 44.97963 | -0.32830 | 23873 ft | 363 kts | 22° |
| 2026-04-29 16:12 | 45.00311 | -0.31592 | 23874 ft | 364 kts | 22° |
| 2026-04-29 16:12 | 45.01889 | -0.30759 | 23877 ft | 364 kts | 22° |
| 2026-04-29 16:12 | 45.05043 | -0.29092 | 23878 ft | 365 kts | 22° |
| 2026-04-29 16:12 | 45.07431 | -0.27829 | 23862 ft | 365 kts | 22° |
| 2026-04-29 16:13 | 45.09807 | -0.26571 | 23869 ft | 365 kts | 22° |
| 2026-04-29 16:13 | 45.12192 | -0.25307 | 23872 ft | 365 kts | 22° |
| 2026-04-29 16:13 | 45.14565 | -0.24049 | 23867 ft | 364 kts | 22° |
| 2026-04-29 16:13 | 45.16933 | -0.22791 | 23871 ft | 364 kts | 22° |
| 2026-04-29 16:14 | 45.19315 | -0.21526 | 23871 ft | 364 kts | 22° |
| 2026-04-29 16:14 | 45.21656 | -0.20281 | 23871 ft | 364 kts | 22° |
| 2026-04-29 16:14 | 45.24033 | -0.19015 | 23868 ft | 363 kts | 22° |
| 2026-04-29 16:14 | 45.26389 | -0.17761 | 23873 ft | 363 kts | 22° |
| 2026-04-29 16:15 | 45.28755 | -0.16499 | 23871 ft | 363 kts | 22° |
| 2026-04-29 16:15 | 45.31099 | -0.15249 | 23874 ft | 363 kts | 22° |
| 2026-04-29 16:15 | 45.33469 | -0.13983 | 23875 ft | 362 kts | 22° |
| 2026-04-29 16:15 | 45.35836 | -0.12717 | 23879 ft | 362 kts | 22° |
| 2026-04-29 16:16 | 45.38182 | -0.11461 | 23878 ft | 362 kts | 22° |
| 2026-04-29 16:16 | 45.40522 | -0.10208 | 23881 ft | 362 kts | 22° |
| 2026-04-29 16:16 | 45.42878 | -0.08945 | 23884 ft | 362 kts | 22° |
| 2026-04-29 16:16 | 45.45250 | -0.07673 | 23891 ft | 362 kts | 22° |
| 2026-04-29 16:17 | 45.47590 | -0.06416 | 23885 ft | 362 kts | 22° |
| 2026-04-29 16:17 | 45.49942 | -0.05151 | 23885 ft | 362 kts | 22° |
| 2026-04-29 16:17 | 45.52280 | -0.03893 | 23887 ft | 362 kts | 22° |
| 2026-04-29 16:17 | 45.54657 | -0.02613 | 23889 ft | 362 kts | 22° |
| 2026-04-29 16:18 | 45.56986 | -0.01358 | 23890 ft | 362 kts | 22° |
| 2026-04-29 16:18 | 45.59357 | -0.00079 | 23887 ft | 362 kts | 22° |
| 2026-04-29 16:18 | 45.61689 | 0.01181 | 23886 ft | 362 kts | 21° |
| 2026-04-29 16:18 | 45.64035 | 0.02448 | 23887 ft | 361 kts | 21° |
| 2026-04-29 16:19 | 45.66402 | 0.03728 | 23890 ft | 361 kts | 21° |
| 2026-04-29 16:19 | 45.68751 | 0.05000 | 23892 ft | 361 kts | 21° |
| 2026-04-29 16:19 | 45.71087 | 0.06266 | 23891 ft | 361 kts | 21° |
| 2026-04-29 16:19 | 45.73436 | 0.07539 | 23897 ft | 361 kts | 21° |
| 2026-04-29 16:20 | 45.75771 | 0.08807 | 23896 ft | 360 kts | 21° |
| 2026-04-29 16:20 | 45.78102 | 0.10073 | 23901 ft | 360 kts | 21° |
| 2026-04-29 16:20 | 45.80454 | 0.11352 | 23892 ft | 360 kts | 22° |
| 2026-04-29 16:20 | 45.82799 | 0.12629 | 23894 ft | 360 kts | 22° |
| 2026-04-29 16:21 | 45.85121 | 0.13895 | 23895 ft | 360 kts | 21° |
| 2026-04-29 16:21 | 45.87460 | 0.15171 | 23894 ft | 360 kts | 21° |
| 2026-04-29 16:21 | 45.89781 | 0.16437 | 23892 ft | 360 kts | 21° |
| 2026-04-29 16:21 | 45.92119 | 0.17713 | 23896 ft | 359 kts | 21° |
| 2026-04-29 16:22 | 45.94443 | 0.18985 | 23902 ft | 359 kts | 21° |
| 2026-04-29 16:22 | 45.96785 | 0.20266 | 23899 ft | 359 kts | 21° |
| 2026-04-29 16:22 | 45.99124 | 0.21547 | 23900 ft | 358 kts | 21° |
| 2026-04-29 16:22 | 46.01421 | 0.22807 | 23899 ft | 358 kts | 21° |
| 2026-04-29 16:23 | 46.03751 | 0.24086 | 23902 ft | 358 kts | 21° |
| 2026-04-29 16:23 | 46.06083 | 0.25366 | 23900 ft | 358 kts | 21° |
| 2026-04-29 16:23 | 46.08408 | 0.26644 | 23907 ft | 358 kts | 21° |
| 2026-04-29 16:23 | 46.10725 | 0.27919 | 23902 ft | 358 kts | 21° |
| 2026-04-29 16:24 | 46.13066 | 0.29208 | 23904 ft | 358 kts | 21° |
| 2026-04-29 16:24 | 46.15380 | 0.30484 | 23908 ft | 358 kts | 21° |
| 2026-04-29 16:24 | 46.17697 | 0.31762 | 23908 ft | 358 kts | 21° |
| 2026-04-29 16:24 | 46.20029 | 0.33050 | 23910 ft | 358 kts | 21° |
| 2026-04-29 16:25 | 46.22334 | 0.34325 | 23913 ft | 357 kts | 21° |
| 2026-04-29 16:25 | 46.24653 | 0.35607 | 23912 ft | 357 kts | 21° |
| 2026-04-29 16:25 | 46.26978 | 0.36895 | 23910 ft | 357 kts | 21° |
| 2026-04-29 16:25 | 46.29276 | 0.38169 | 23909 ft | 357 kts | 21° |
| 2026-04-29 16:26 | 46.31593 | 0.39454 | 23910 ft | 357 kts | 21° |
| 2026-04-29 16:26 | 46.33918 | 0.40745 | 23907 ft | 357 kts | 21° |
| 2026-04-29 16:26 | 46.36221 | 0.42025 | 23910 ft | 357 kts | 21° |
| 2026-04-29 16:26 | 46.38525 | 0.43306 | 23911 ft | 356 kts | 21° |
| 2026-04-29 16:27 | 46.40837 | 0.44594 | 23914 ft | 356 kts | 21° |
| 2026-04-29 16:27 | 46.43169 | 0.45893 | 23910 ft | 356 kts | 21° |
| 2026-04-29 16:27 | 46.45457 | 0.47169 | 23914 ft | 356 kts | 21° |
| 2026-04-29 16:27 | 46.47769 | 0.48460 | 23914 ft | 356 kts | 21° |
| 2026-04-29 16:28 | 46.50068 | 0.49745 | 23915 ft | 356 kts | 21° |
| 2026-04-29 16:28 | 46.52391 | 0.51045 | 23913 ft | 356 kts | 21° |
| 2026-04-29 16:28 | 46.54667 | 0.52319 | 23915 ft | 356 kts | 21° |
| 2026-04-29 16:28 | 46.57020 | 0.53464 | 23918 ft | 355 kts | 14° |
| 2026-04-29 16:29 | 46.59423 | 0.54277 | 23916 ft | 356 kts | 12° |
| 2026-04-29 16:29 | 46.61832 | 0.55055 | 23916 ft | 355 kts | 12° |
| 2026-04-29 16:29 | 46.64233 | 0.55832 | 23917 ft | 355 kts | 12° |
| 2026-04-29 16:29 | 46.66642 | 0.56615 | 23920 ft | 355 kts | 12° |
| 2026-04-29 16:30 | 46.69058 | 0.57403 | 23917 ft | 354 kts | 12° |
| 2026-04-29 16:30 | 46.71463 | 0.58191 | 23915 ft | 354 kts | 12° |
| 2026-04-29 16:30 | 46.73849 | 0.58975 | 23915 ft | 354 kts | 12° |
| 2026-04-29 16:30 | 46.76246 | 0.59764 | 23916 ft | 354 kts | 12° |
| 2026-04-29 16:31 | 46.78668 | 0.60562 | 23921 ft | 354 kts | 12° |
| 2026-04-29 16:31 | 46.81037 | 0.61345 | 23920 ft | 354 kts | 12° |
| 2026-04-29 16:31 | 46.83429 | 0.62136 | 23921 ft | 354 kts | 12° |
| 2026-04-29 16:31 | 46.85835 | 0.62933 | 23919 ft | 354 kts | 12° |
| 2026-04-29 16:32 | 46.88229 | 0.63727 | 23920 ft | 354 kts | 12° |
| 2026-04-29 16:32 | 46.90614 | 0.64519 | 23919 ft | 354 kts | 12° |
| 2026-04-29 16:32 | 46.93021 | 0.65319 | 23923 ft | 354 kts | 13° |
| 2026-04-29 16:32 | 46.95419 | 0.66116 | 23924 ft | 354 kts | 13° |
| 2026-04-29 16:33 | 47.00221 | 0.67716 | 23925 ft | 353 kts | 13° |
| 2026-04-29 16:33 | 47.02602 | 0.68511 | 23925 ft | 353 kts | 13° |
| 2026-04-29 16:33 | 47.05000 | 0.69233 | 23922 ft | 353 kts | 8° |
| 2026-04-29 16:34 | 47.07428 | 0.69559 | 23933 ft | 353 kts | 4° |
| 2026-04-29 16:34 | 47.09877 | 0.69801 | 23938 ft | 352 kts | 4° |
| 2026-04-29 16:34 | 47.12318 | 0.70042 | 23936 ft | 352 kts | 4° |
| 2026-04-29 16:34 | 47.14783 | 0.70288 | 23937 ft | 352 kts | 4° |
| 2026-04-29 16:35 | 47.17223 | 0.70534 | 23937 ft | 352 kts | 4° |
| 2026-04-29 16:35 | 47.19665 | 0.70783 | 23938 ft | 352 kts | 4° |
| 2026-04-29 16:35 | 47.22104 | 0.71033 | 23941 ft | 352 kts | 4° |
| 2026-04-29 16:35 | 47.24530 | 0.71283 | 23943 ft | 352 kts | 4° |
| 2026-04-29 16:36 | 47.26982 | 0.71538 | 23939 ft | 352 kts | 4° |
| 2026-04-29 16:36 | 47.29408 | 0.71790 | 23933 ft | 352 kts | 4° |
| 2026-04-29 16:36 | 47.31836 | 0.72043 | 23940 ft | 352 kts | 4° |
| 2026-04-29 16:36 | 47.34304 | 0.72301 | 23945 ft | 352 kts | 4° |
| 2026-04-29 16:37 | 47.36742 | 0.72557 | 23948 ft | 352 kts | 4° |
| 2026-04-29 16:37 | 47.39180 | 0.72812 | 23946 ft | 352 kts | 4° |
| 2026-04-29 16:37 | 47.41605 | 0.73067 | 23948 ft | 352 kts | 4° |
| 2026-04-29 16:37 | 47.43237 | 0.73239 | 23951 ft | 352 kts | 4° |
| 2026-04-29 16:38 | 47.46498 | 0.73582 | 23952 ft | 352 kts | 4° |
| 2026-04-29 16:38 | 47.48924 | 0.73858 | 23947 ft | 351 kts | 7° |
| 2026-04-29 16:38 | 47.51295 | 0.74672 | 23966 ft | 350 kts | 18° |
| 2026-04-29 16:38 | 47.53600 | 0.75808 | 23954 ft | 350 kts | 19° |
| 2026-04-29 16:39 | 47.55907 | 0.76959 | 23953 ft | 350 kts | 19° |
| 2026-04-29 16:39 | 47.58191 | 0.78098 | 23959 ft | 349 kts | 19° |
| 2026-04-29 16:39 | 47.60507 | 0.79250 | 23963 ft | 349 kts | 19° |
| 2026-04-29 16:39 | 47.62783 | 0.80379 | 23960 ft | 348 kts | 19° |
| 2026-04-29 16:40 | 47.65083 | 0.81520 | 23961 ft | 348 kts | 19° |
| 2026-04-29 16:40 | 47.67364 | 0.82651 | 23969 ft | 348 kts | 19° |
| 2026-04-29 16:40 | 47.69656 | 0.83786 | 23972 ft | 348 kts | 19° |
| 2026-04-29 16:40 | 47.71948 | 0.84922 | 23976 ft | 348 kts | 19° |
| 2026-04-29 16:41 | 47.74237 | 0.86057 | 23977 ft | 348 kts | 19° |
| 2026-04-29 16:41 | 47.76548 | 0.87203 | 23976 ft | 348 kts | 19° |
| 2026-04-29 16:41 | 47.78835 | 0.88338 | 23981 ft | 348 kts | 19° |
| 2026-04-29 16:41 | 47.81136 | 0.89480 | 23983 ft | 349 kts | 19° |
| 2026-04-29 16:42 | 47.83417 | 0.90614 | 23981 ft | 349 kts | 19° |
| 2026-04-29 16:42 | 47.85724 | 0.91768 | 23979 ft | 349 kts | 19° |
| 2026-04-29 16:42 | 47.88000 | 0.92917 | 23980 ft | 349 kts | 19° |
| 2026-04-29 16:42 | 47.90302 | 0.94081 | 23984 ft | 349 kts | 20° |
| 2026-04-29 16:43 | 47.92616 | 0.95252 | 23990 ft | 349 kts | 20° |
| 2026-04-29 16:43 | 47.94904 | 0.96410 | 23994 ft | 349 kts | 20° |
| 2026-04-29 16:43 | 47.97199 | 0.97573 | 23999 ft | 348 kts | 19° |
| 2026-04-29 16:43 | 47.99465 | 0.98723 | 24002 ft | 348 kts | 19° |
| 2026-04-29 16:44 | 48.01759 | 0.99887 | 24005 ft | 348 kts | 19° |
| 2026-04-29 16:44 | 48.04036 | 1.01043 | 24005 ft | 348 kts | 19° |
| 2026-04-29 16:44 | 48.06337 | 1.02213 | 24001 ft | 348 kts | 19° |
| 2026-04-29 16:44 | 48.08643 | 1.03386 | 24001 ft | 348 kts | 19° |
| 2026-04-29 16:45 | 48.10923 | 1.04547 | 24002 ft | 348 kts | 19° |
| 2026-04-29 16:45 | 48.13212 | 1.05714 | 24009 ft | 348 kts | 19° |
| 2026-04-29 16:45 | 48.15527 | 1.06895 | 24014 ft | 348 kts | 19° |
| 2026-04-29 16:45 | 48.17813 | 1.08063 | 24008 ft | 348 kts | 19° |
| 2026-04-29 16:46 | 48.20098 | 1.09230 | 24008 ft | 348 kts | 20° |
| 2026-04-29 16:46 | 48.22396 | 1.10406 | 24014 ft | 348 kts | 19° |
| 2026-04-29 16:46 | 48.24672 | 1.11565 | 24012 ft | 348 kts | 19° |
| 2026-04-29 16:46 | 48.26968 | 1.12734 | 24012 ft | 348 kts | 19° |
| 2026-04-29 16:47 | 48.29231 | 1.13887 | 24015 ft | 348 kts | 19° |
| 2026-04-29 16:47 | 48.31529 | 1.15059 | 24016 ft | 348 kts | 19° |
| 2026-04-29 16:47 | 48.33820 | 1.16229 | 24019 ft | 348 kts | 19° |
| 2026-04-29 16:47 | 48.36107 | 1.17398 | 24020 ft | 348 kts | 19° |
| 2026-04-29 16:48 | 48.38393 | 1.18568 | 24023 ft | 348 kts | 19° |
| 2026-04-29 16:48 | 48.40665 | 1.19732 | 24026 ft | 348 kts | 19° |
| 2026-04-29 16:48 | 48.42967 | 1.20913 | 24027 ft | 348 kts | 19° |
| 2026-04-29 16:48 | 48.45255 | 1.22087 | 24026 ft | 348 kts | 19° |
| 2026-04-29 16:49 | 48.47521 | 1.23251 | 24027 ft | 348 kts | 19° |
| 2026-04-29 16:49 | 48.49817 | 1.24432 | 24031 ft | 348 kts | 19° |
| 2026-04-29 16:49 | 48.52123 | 1.25622 | 24025 ft | 348 kts | 20° |
| 2026-04-29 16:49 | 48.54227 | 1.27275 | 24001 ft | 345 kts | 41° |
| 2026-04-29 16:50 | 48.55638 | 1.30118 | 24038 ft | 340 kts | 65° |
| 2026-04-29 16:50 | 48.56546 | 1.33425 | 24034 ft | 340 kts | 70° |
| 2026-04-29 16:50 | 48.57388 | 1.36723 | 24036 ft | 340 kts | 70° |
| 2026-04-29 16:50 | 48.58232 | 1.40077 | 24039 ft | 341 kts | 70° |
| 2026-04-29 16:51 | 48.59067 | 1.43410 | 24040 ft | 341 kts | 70° |
| 2026-04-29 16:51 | 48.59899 | 1.46750 | 24048 ft | 341 kts | 70° |
| 2026-04-29 16:51 | 48.60731 | 1.50099 | 24041 ft | 341 kts | 70° |
| 2026-04-29 16:51 | 48.61553 | 1.53416 | 24040 ft | 341 kts | 70° |
| 2026-04-29 16:52 | 48.62383 | 1.56773 | 24040 ft | 340 kts | 68° |
| 2026-04-29 16:52 | 48.63214 | 1.60144 | 24043 ft | 340 kts | 68° |
| 2026-04-29 16:52 | 48.64024 | 1.63435 | 24047 ft | 340 kts | 68° |
| 2026-04-29 16:52 | 48.64858 | 1.66829 | 24043 ft | 340 kts | 69° |
| 2026-04-29 16:53 | 48.65677 | 1.70186 | 24045 ft | 339 kts | 69° |
| 2026-04-29 16:53 | 48.66484 | 1.73503 | 24048 ft | 339 kts | 68° |
| 2026-04-29 16:53 | 48.67294 | 1.76838 | 24052 ft | 339 kts | 69° |
| 2026-04-29 16:53 | 48.68110 | 1.80204 | 24052 ft | 339 kts | 69° |
| 2026-04-29 16:54 | 48.68912 | 1.83516 | 24048 ft | 340 kts | 68° |
| 2026-04-29 16:54 | 48.69731 | 1.86898 | 24048 ft | 340 kts | 68° |
| 2026-04-29 16:54 | 48.70537 | 1.90238 | 24060 ft | 340 kts | 68° |
| 2026-04-29 16:54 | 48.71344 | 1.93586 | 24063 ft | 340 kts | 68° |
| 2026-04-29 16:55 | 48.72147 | 1.96920 | 24065 ft | 340 kts | 68° |
| 2026-04-29 16:55 | 48.72959 | 2.00296 | 24068 ft | 340 kts | 68° |
| 2026-04-29 16:55 | 48.73764 | 2.03654 | 24064 ft | 340 kts | 68° |
| 2026-04-29 16:55 | 48.74567 | 2.07003 | 24067 ft | 340 kts | 68° |
| 2026-04-29 16:56 | 48.75370 | 2.10360 | 24066 ft | 339 kts | 68° |
| 2026-04-29 16:56 | 48.76218 | 2.13685 | 24073 ft | 338 kts | 66° |
| 2026-04-29 16:56 | 48.77102 | 2.16950 | 24068 ft | 337 kts | 65° |
| 2026-04-29 16:56 | 48.78001 | 2.20268 | 24068 ft | 337 kts | 65° |
| 2026-04-29 16:57 | 48.78873 | 2.23502 | 24069 ft | 336 kts | 66° |
| 2026-04-29 16:57 | 48.79759 | 2.26797 | 24069 ft | 336 kts | 65° |
| 2026-04-29 16:57 | 48.80637 | 2.30076 | 24066 ft | 335 kts | 66° |
| 2026-04-29 16:57 | 48.81511 | 2.33343 | 24070 ft | 335 kts | 66° |
| 2026-04-29 16:58 | 48.82381 | 2.36608 | 24076 ft | 335 kts | 65° |
| 2026-04-29 16:58 | 48.83248 | 2.39867 | 24071 ft | 335 kts | 66° |
| 2026-04-29 16:58 | 48.84112 | 2.43121 | 24074 ft | 334 kts | 66° |
| 2026-04-29 16:58 | 48.84980 | 2.46394 | 24079 ft | 334 kts | 66° |
| 2026-04-29 16:59 | 48.85847 | 2.49671 | 24082 ft | 334 kts | 66° |
| 2026-04-29 16:59 | 48.86704 | 2.52913 | 24082 ft | 333 kts | 66° |
| 2026-04-29 16:59 | 48.87558 | 2.56152 | 24085 ft | 333 kts | 66° |
| 2026-04-29 16:59 | 48.88412 | 2.59397 | 24085 ft | 332 kts | 66° |
| 2026-04-29 17:00 | 48.89267 | 2.62646 | 24085 ft | 332 kts | 66° |
| 2026-04-29 17:00 | 48.90124 | 2.65910 | 24084 ft | 332 kts | 66° |
| 2026-04-29 17:00 | 48.90980 | 2.69174 | 24088 ft | 331 kts | 67° |
| 2026-04-29 17:00 | 48.91834 | 2.72435 | 24087 ft | 331 kts | 67° |
| 2026-04-29 17:01 | 48.92678 | 2.75663 | 24088 ft | 331 kts | 67° |
| 2026-04-29 17:01 | 48.93519 | 2.78888 | 24088 ft | 330 kts | 67° |
| 2026-04-29 17:01 | 48.94371 | 2.82154 | 24089 ft | 331 kts | 67° |
| 2026-04-29 17:01 | 48.95216 | 2.85399 | 24089 ft | 330 kts | 67° |
| 2026-04-29 17:02 | 48.96059 | 2.88643 | 24094 ft | 330 kts | 67° |
| 2026-04-29 17:02 | 48.96896 | 2.91868 | 24093 ft | 330 kts | 67° |
| 2026-04-29 17:02 | 48.97729 | 2.95084 | 24089 ft | 330 kts | 67° |
| 2026-04-29 17:02 | 48.98571 | 2.98335 | 24090 ft | 330 kts | 67° |
| 2026-04-29 17:03 | 48.99411 | 3.01584 | 24094 ft | 330 kts | 68° |
| 2026-04-29 17:03 | 49.00251 | 3.04840 | 24088 ft | 330 kts | 67° |
| 2026-04-29 17:03 | 49.01082 | 3.08065 | 24096 ft | 331 kts | 67° |
| 2026-04-29 17:03 | 49.01924 | 3.11337 | 24099 ft | 330 kts | 68° |
| 2026-04-29 17:04 | 49.02761 | 3.14596 | 24108 ft | 330 kts | 68° |
| 2026-04-29 17:04 | 49.03586 | 3.17810 | 24103 ft | 330 kts | 68° |
| 2026-04-29 17:04 | 49.04420 | 3.21066 | 24104 ft | 331 kts | 68° |
| 2026-04-29 17:04 | 49.05259 | 3.24343 | 24103 ft | 331 kts | 68° |
| 2026-04-29 17:05 | 49.06086 | 3.27581 | 24114 ft | 331 kts | 68° |
| 2026-04-29 17:05 | 49.06915 | 3.30830 | 24112 ft | 331 kts | 68° |
| 2026-04-29 17:05 | 49.07753 | 3.34121 | 24114 ft | 331 kts | 67° |
| 2026-04-29 17:05 | 49.08579 | 3.37366 | 24119 ft | 330 kts | 68° |
| 2026-04-29 17:06 | 49.09412 | 3.40645 | 24122 ft | 330 kts | 67° |
| 2026-04-29 17:06 | 49.10240 | 3.43910 | 24122 ft | 330 kts | 68° |
| 2026-04-29 17:06 | 49.11071 | 3.47191 | 24119 ft | 330 kts | 68° |
| 2026-04-29 17:06 | 49.11903 | 3.50476 | 24119 ft | 330 kts | 68° |
| 2026-04-29 17:07 | 49.12716 | 3.53699 | 24123 ft | 330 kts | 68° |
| 2026-04-29 17:07 | 49.13538 | 3.56970 | 24119 ft | 330 kts | 68° |
| 2026-04-29 17:07 | 49.14213 | 3.60310 | 24125 ft | 330 kts | 73° |
| 2026-04-29 17:07 | 49.14790 | 3.63702 | 24127 ft | 330 kts | 74° |
| 2026-04-29 17:08 | 49.15364 | 3.67108 | 24128 ft | 329 kts | 75° |
| 2026-04-29 17:08 | 49.15936 | 3.70504 | 24126 ft | 329 kts | 75° |
| 2026-04-29 17:08 | 49.16502 | 3.73856 | 24130 ft | 329 kts | 74° |
| 2026-04-29 17:08 | 49.17075 | 3.77253 | 24131 ft | 329 kts | 74° |
| 2026-04-29 17:09 | 49.17640 | 3.80607 | 24135 ft | 329 kts | 74° |
| 2026-04-29 17:09 | 49.18213 | 3.84008 | 24130 ft | 328 kts | 74° |
| 2026-04-29 17:09 | 49.18775 | 3.87345 | 24134 ft | 328 kts | 74° |
| 2026-04-29 17:09 | 49.19342 | 3.90722 | 24132 ft | 328 kts | 74° |
| 2026-04-29 17:10 | 49.19909 | 3.94100 | 24137 ft | 327 kts | 74° |
| 2026-04-29 17:10 | 49.20468 | 3.97434 | 24131 ft | 327 kts | 74° |
| 2026-04-29 17:10 | 49.21034 | 4.00819 | 24132 ft | 327 kts | 74° |
| 2026-04-29 17:10 | 49.21592 | 4.04160 | 24139 ft | 326 kts | 74° |
| 2026-04-29 17:11 | 49.22155 | 4.07536 | 24150 ft | 326 kts | 74° |
| 2026-04-29 17:11 | 49.22708 | 4.10862 | 24147 ft | 325 kts | 75° |
| 2026-04-29 17:11 | 49.23260 | 4.14189 | 24144 ft | 325 kts | 74° |
| 2026-04-29 17:11 | 49.23819 | 4.17561 | 24138 ft | 325 kts | 74° |
| 2026-04-29 17:12 | 49.24369 | 4.20884 | 24143 ft | 324 kts | 74° |
| 2026-04-29 17:12 | 49.24920 | 4.24220 | 24071 ft | 323 kts | 74° |
| 2026-04-29 17:12 | 49.25473 | 4.27572 | 23795 ft | 327 kts | 74° |
| 2026-04-29 17:12 | 49.25841 | 4.29806 | 23565 ft | 331 kts | 74° |
| 2026-04-29 17:13 | 49.26591 | 4.34375 | 23108 ft | 336 kts | 74° |
| 2026-04-29 17:13 | 49.27157 | 4.37827 | 22747 ft | 335 kts | 74° |
| 2026-04-29 17:13 | 49.27716 | 4.41240 | 22379 ft | 329 kts | 74° |
| 2026-04-29 17:13 | 49.28268 | 4.44608 | 22028 ft | 323 kts | 74° |
| 2026-04-29 17:14 | 49.28806 | 4.47908 | 21683 ft | 319 kts | 74° |
| 2026-04-29 17:14 | 49.29337 | 4.51167 | 21342 ft | 315 kts | 74° |
| 2026-04-29 17:14 | 49.29864 | 4.54409 | 21006 ft | 312 kts | 74° |
| 2026-04-29 17:14 | 49.30383 | 4.57612 | 20676 ft | 309 kts | 74° |
| 2026-04-29 17:15 | 49.30899 | 4.60808 | 20345 ft | 307 kts | 73° |
| 2026-04-29 17:15 | 49.31407 | 4.63952 | 20012 ft | 305 kts | 73° |
| 2026-04-29 17:15 | 49.31911 | 4.67082 | 19682 ft | 303 kts | 74° |
| 2026-04-29 17:15 | 49.32412 | 4.70197 | 19365 ft | 301 kts | 74° |
| 2026-04-29 17:16 | 49.32913 | 4.73324 | 19032 ft | 300 kts | 74° |
| 2026-04-29 17:16 | 49.33404 | 4.76391 | 18713 ft | 299 kts | 74° |
| 2026-04-29 17:16 | 49.33897 | 4.79475 | 18390 ft | 297 kts | 74° |
| 2026-04-29 17:16 | 49.34388 | 4.82557 | 17961 ft | 300 kts | 74° |
| 2026-04-29 17:17 | 49.34883 | 4.85660 | 17575 ft | 301 kts | 74° |
| 2026-04-29 17:17 | 49.35376 | 4.88764 | 17228 ft | 299 kts | 74° |
| 2026-04-29 17:17 | 49.35865 | 4.91848 | 16894 ft | 299 kts | 74° |
| 2026-04-29 17:17 | 49.36350 | 4.94911 | 16563 ft | 299 kts | 74° |
| 2026-04-29 17:18 | 49.36839 | 4.98008 | 16247 ft | 298 kts | 74° |
| 2026-04-29 17:18 | 49.37324 | 5.01086 | 15928 ft | 298 kts | 75° |
| 2026-04-29 17:18 | 49.37810 | 5.04177 | 15598 ft | 298 kts | 75° |
| 2026-04-29 17:18 | 49.38289 | 5.07221 | 15280 ft | 297 kts | 75° |
| 2026-04-29 17:19 | 49.38773 | 5.10310 | 14965 ft | 296 kts | 75° |
| 2026-04-29 17:19 | 49.39287 | 5.13322 | 14655 ft | 294 kts | 72° |
| 2026-04-29 17:19 | 49.39928 | 5.16318 | 14331 ft | 294 kts | 70° |
| 2026-04-29 17:19 | 49.40580 | 5.19285 | 14019 ft | 293 kts | 70° |
| 2026-04-29 17:20 | 49.41225 | 5.22225 | 13707 ft | 292 kts | 70° |
| 2026-04-29 17:20 | 49.41864 | 5.25145 | 13392 ft | 291 kts | 70° |
| 2026-04-29 17:20 | 49.42507 | 5.28092 | 13083 ft | 290 kts | 71° |
| 2026-04-29 17:20 | 49.43145 | 5.31020 | 12782 ft | 289 kts | 70° |
| 2026-04-29 17:21 | 49.43774 | 5.33920 | 12472 ft | 288 kts | 71° |
| 2026-04-29 17:21 | 49.44405 | 5.36829 | 12159 ft | 287 kts | 71° |
| 2026-04-29 17:21 | 49.45035 | 5.39743 | 11850 ft | 286 kts | 71° |
| 2026-04-29 17:21 | 49.45653 | 5.42607 | 11553 ft | 285 kts | 71° |
| 2026-04-29 17:22 | 49.46276 | 5.45500 | 11243 ft | 284 kts | 71° |
| 2026-04-29 17:22 | 49.46897 | 5.48382 | 10931 ft | 284 kts | 71° |
| 2026-04-29 17:22 | 49.47509 | 5.51225 | 10626 ft | 283 kts | 71° |
| 2026-04-29 17:22 | 49.48125 | 5.54098 | 10329 ft | 281 kts | 71° |
| 2026-04-29 17:23 | 49.48685 | 5.56941 | 10026 ft | 280 kts | 76° |
| 2026-04-29 17:23 | 49.48963 | 5.59905 | 9725 ft | 279 kts | 82° |
| 2026-04-29 17:23 | 49.49168 | 5.62845 | 9419 ft | 279 kts | 82° |
| 2026-04-29 17:23 | 49.49372 | 5.65796 | 9129 ft | 277 kts | 83° |
| 2026-04-29 17:24 | 49.49577 | 5.68766 | 8826 ft | 275 kts | 83° |
| 2026-04-29 17:24 | 49.49777 | 5.71632 | 8517 ft | 265 kts | 83° |
| 2026-04-29 17:24 | 49.49973 | 5.74374 | 8223 ft | 249 kts | 83° |
| 2026-04-29 17:24 | 49.50146 | 5.76926 | 7974 ft | 235 kts | 84° |
| 2026-04-29 17:25 | 49.50312 | 5.79378 | 7573 ft | 228 kts | 84° |
| 2026-04-29 17:25 | 49.50474 | 5.81756 | 7154 ft | 223 kts | 84° |
| 2026-04-29 17:25 | 49.50634 | 5.84081 | 6732 ft | 218 kts | 84° |
| 2026-04-29 17:25 | 49.50795 | 5.86398 | 6315 ft | 213 kts | 84° |
| 2026-04-29 17:26 | 49.50949 | 5.88615 | 5923 ft | 208 kts | 84° |
| 2026-04-29 17:26 | 49.51264 | 5.90755 | 5534 ft | 203 kts | 69° |
| 2026-04-29 17:26 | 49.51923 | 5.92630 | 5163 ft | 198 kts | 63° |
| 2026-04-29 17:26 | 49.52600 | 5.94413 | 4791 ft | 192 kts | 63° |
| 2026-04-29 17:27 | 49.53268 | 5.96164 | 4416 ft | 186 kts | 63° |
| 2026-04-29 17:27 | 49.53905 | 5.97832 | 4190 ft | 176 kts | 63° |
| 2026-04-29 17:27 | 49.54503 | 5.99420 | 3951 ft | 170 kts | 63° |
| 2026-04-29 17:27 | 49.55088 | 6.00970 | 3708 ft | 163 kts | 63° |
| 2026-04-29 17:28 | 49.55640 | 6.02439 | 3486 ft | 154 kts | 63° |
| 2026-04-29 17:28 | 49.56158 | 6.03815 | 3273 ft | 145 kts | 63° |
| 2026-04-29 17:28 | 49.56637 | 6.05089 | 3115 ft | 132 kts | 64° |
| 2026-04-29 17:28 | 49.57090 | 6.06315 | 2942 ft | 131 kts | 65° |
| 2026-04-29 17:29 | 49.57543 | 6.07552 | 2788 ft | 135 kts | 66° |
| 2026-04-29 17:29 | 49.58016 | 6.08824 | 2618 ft | 140 kts | 64° |
| 2026-04-29 17:29 | 49.58499 | 6.10101 | 2425 ft | 135 kts | 59° |
| 2026-04-29 17:29 | 49.58812 | 6.10926 | 2297 ft | 132 kts | 64° |
| 2026-04-29 17:30 | 49.59438 | 6.12522 | 1987 ft | 135 kts | 64° |
| 2026-04-29 17:30 | 49.59890 | 6.13806 | 1940 ft | 135 kts | 61° |
| 2026-04-29 17:30 | 49.60391 | 6.15104 | 1739 ft | 147 kts | 54° |
| 2026-04-29 17:30 | 49.60912 | 6.16498 | 1588 ft | 153 kts | 60° |
| 2026-04-29 17:31 | 49.61432 | 6.17883 | 1332 ft | 143 kts | 64° |
| 2026-04-29 17:31 | 49.61910 | 6.19172 | 1187 ft | 128 kts | 60° |
| 2026-04-29 17:31 | 49.62248 | 6.20085 | 1214 ft | 70 kts | 59° |
| 2026-04-29 17:31 | 49.62419 | 6.20526 | 1229 ft | 23 kts | 41° |
| 2026-04-29 17:32 | 49.62531 | 6.20615 | 1231 ft | 17 kts | 21° |
| 2026-04-29 17:32 | 49.62634 | 6.20671 | 1234 ft | 12 kts | 13° |
| 2026-04-29 17:32 | 49.62726 | 6.20733 | 1235 ft | 16 kts | 22° |
| 2026-04-29 17:32 | 49.62825 | 6.20833 | 1236 ft | 18 kts | 65° |
| 2026-04-29 17:33 | 49.62885 | 6.21024 | 1235 ft | 20 kts | 65° |